createdAt,value
2019-03-30T00:01:02.334Z,8.03
2019-03-30T00:03:33.409Z,8.47
2019-03-30T00:06:05.076Z,8.90
2019-03-30T00:08:36.902Z,8.87
2019-03-30T00:11:07.971Z,8.70
2019-03-30T00:13:40.536Z,8.73
2019-03-30T00:16:13.074Z,8.30
2019-03-30T00:18:44.622Z,8.53
2019-03-30T00:21:16.025Z,8.93
2019-03-30T00:23:47.573Z,8.63
2019-03-30T00:26:18.765Z,8.83
2019-03-30T00:28:50.269Z,7.87
2019-03-30T00:31:21.666Z,8.03
2019-03-30T00:33:53.165Z,8.10
2019-03-30T00:36:24.535Z,7.90
2019-03-30T00:38:55.867Z,8.10
2019-03-30T00:41:26.898Z,8.43
2019-03-30T00:43:57.928Z,9.00
2019-03-30T00:46:28.893Z,8.77
2019-03-30T00:48:59.920Z,8.50
2019-03-30T00:51:32.763Z,8.13
2019-03-30T00:54:04.243Z,8.73
2019-03-30T00:56:35.345Z,8.30
2019-03-30T00:59:06.692Z,8.30
2019-03-30T01:01:38.603Z,8.03
2019-03-30T01:04:09.640Z,8.40
2019-03-30T01:06:41.204Z,7.90
2019-03-30T01:09:12.550Z,7.57
2019-03-30T01:11:44.069Z,7.43
2019-03-30T01:14:15.170Z,7.90
2019-03-30T01:16:46.313Z,7.40
2019-03-30T01:19:17.834Z,7.47
2019-03-30T01:21:48.976Z,8.23
2019-03-30T01:24:20.510Z,7.67
2019-03-30T01:26:52.614Z,7.63
2019-03-30T01:29:23.759Z,7.53
2019-03-30T01:31:54.838Z,7.40
2019-03-30T01:34:26.216Z,7.63
2019-03-30T01:36:57.268Z,7.43
2019-03-30T01:39:28.310Z,8.13
2019-03-30T01:42:01.030Z,8.37
2019-03-30T01:44:32.512Z,7.47
2019-03-30T01:47:04.714Z,7.87
2019-03-30T01:49:36.184Z,8.03
2019-03-30T01:52:09.154Z,8.30
2019-03-30T01:54:41.410Z,8.33
2019-03-30T01:57:12.504Z,8.30
2019-03-30T01:59:43.931Z,7.80
2019-03-30T02:02:15.021Z,7.00
2019-03-30T02:04:47.007Z,8.47
2019-03-30T02:07:18.381Z,8.03
2019-03-30T02:09:48.965Z,7.87
2019-03-30T02:12:21.390Z,7.87
2019-03-30T02:14:54.100Z,8.07
2019-03-30T02:17:25.122Z,7.93
2019-03-30T02:19:57.001Z,8.30
2019-03-30T02:22:28.583Z,8.60
2019-03-30T02:24:59.704Z,8.10
2019-03-30T02:27:30.633Z,8.57
2019-03-30T02:30:03.819Z,7.20
2019-03-30T02:32:35.005Z,7.37
2019-03-30T02:35:05.200Z,7.73
2019-03-30T02:37:36.050Z,7.00
2019-03-30T02:40:08.901Z,7.07
2019-03-30T02:42:40.062Z,7.93
2019-03-30T02:45:11.748Z,8.27
2019-03-30T02:47:43.287Z,8.13
2019-03-30T02:50:15.707Z,8.13
2019-03-30T02:52:46.710Z,7.90
2019-03-30T02:55:17.964Z,7.43
2019-03-30T02:57:50.369Z,7.83
2019-03-30T03:00:21.558Z,7.37
2019-03-30T03:02:53.169Z,7.83
2019-03-30T03:05:25.040Z,7.97
2019-03-30T03:07:56.122Z,8.27
2019-03-30T03:10:26.342Z,7.83
2019-03-30T03:12:58.232Z,7.83
2019-03-30T03:15:29.111Z,8.23
2019-03-30T03:18:01.040Z,7.60
2019-03-30T03:20:32.339Z,8.87
2019-03-30T03:23:04.292Z,8.57
2019-03-30T03:25:35.532Z,7.07
2019-03-30T03:28:06.510Z,8.07
2019-03-30T03:30:38.131Z,7.73
2019-03-30T03:33:08.393Z,8.03
2019-03-30T03:35:39.695Z,7.87
2019-03-30T03:38:14.001Z,8.40
2019-03-30T03:40:47.945Z,9.17
2019-03-30T03:43:19.869Z,8.83
2019-03-30T03:45:52.670Z,8.47
2019-03-30T03:48:23.025Z,8.70
2019-03-30T03:51:01.752Z,8.57
2019-03-30T03:53:35.818Z,9.50
2019-03-30T03:56:08.399Z,9.23
2019-03-30T03:58:41.426Z,10.40
2019-03-30T04:01:16.993Z,11.00
2019-03-30T04:03:50.716Z,9.73
2019-03-30T04:06:25.253Z,10.50
2019-03-30T04:08:57.139Z,11.53
2019-03-30T04:11:31.448Z,10.80
2019-03-30T04:14:04.918Z,9.27
2019-03-30T04:16:36.740Z,9.67
2019-03-30T04:19:08.553Z,9.07
2019-03-30T04:21:44.362Z,8.63
2019-03-30T04:24:13.086Z,8.50
2019-03-30T04:26:45.076Z,8.00
2019-03-30T04:29:17.525Z,8.43
2019-03-30T04:31:48.955Z,8.73
2019-03-30T04:34:21.343Z,8.93
2019-03-30T04:36:52.586Z,8.43
2019-03-30T04:39:24.248Z,8.43
2019-03-30T04:41:56.108Z,8.63
2019-03-30T04:44:28.407Z,8.93
2019-03-30T04:47:00.859Z,8.70
2019-03-30T04:49:34.677Z,8.30
2019-03-30T04:52:08.015Z,8.07
2019-03-30T04:54:44.988Z,8.77
2019-03-30T04:57:16.474Z,8.13
2019-03-30T04:59:48.238Z,8.33
2019-03-30T05:02:20.959Z,8.37
2019-03-30T05:04:53.528Z,7.87
2019-03-30T05:07:25.719Z,8.27
2019-03-30T05:09:58.769Z,7.67
2019-03-30T05:12:30.570Z,8.40
2019-03-30T05:15:02.519Z,8.23
2019-03-30T05:17:47.036Z,8.47
2019-03-30T05:20:08.240Z,7.37
2019-03-30T05:22:39.641Z,7.73
2019-03-30T05:25:12.508Z,7.77
2019-03-30T05:27:44.882Z,8.07
2019-03-30T05:30:21.333Z,7.50
2019-03-30T05:33:05.020Z,7.97
2019-03-30T05:35:27.245Z,7.50
2019-03-30T05:38:01.467Z,8.43
2019-03-30T05:40:33.280Z,8.13
2019-03-30T05:43:07.919Z,8.43
2019-03-30T05:45:41.661Z,8.53
2019-03-30T05:48:14.837Z,8.70
2019-03-30T05:50:47.277Z,7.33
2019-03-30T05:53:18.243Z,7.93
2019-03-30T05:55:49.590Z,8.17
2019-03-30T05:58:20.721Z,9.47
2019-03-30T06:00:52.168Z,9.10
2019-03-30T06:03:23.684Z,9.27
2019-03-30T06:05:55.267Z,8.13
2019-03-30T06:08:26.455Z,8.83
2019-03-30T06:10:57.500Z,8.80
2019-03-30T06:13:30.861Z,8.47
2019-03-30T06:16:03.293Z,9.77
2019-03-30T06:18:34.511Z,8.43
2019-03-30T06:21:06.535Z,8.17
2019-03-30T06:23:40.994Z,8.27
2019-03-30T06:26:13.039Z,8.20
2019-03-30T06:28:45.408Z,8.70
2019-03-30T06:31:18.126Z,7.97
2019-03-30T06:33:49.831Z,8.67
2019-03-30T06:36:20.983Z,8.90
2019-03-30T06:38:52.129Z,8.70
2019-03-30T06:41:23.196Z,8.90
2019-03-30T06:43:55.170Z,9.10
2019-03-30T06:46:26.608Z,10.23
2019-03-30T06:48:57.685Z,9.30
2019-03-30T06:51:30.115Z,8.87
2019-03-30T06:54:02.704Z,10.37
2019-03-30T06:56:34.360Z,10.17
2019-03-30T06:59:06.050Z,10.17
2019-03-30T07:01:39.784Z,9.13
2019-03-30T07:04:12.515Z,10.20
2019-03-30T07:06:49.177Z,10.90
2019-03-30T07:09:23.043Z,11.33
2019-03-30T07:11:57.225Z,10.70
2019-03-30T07:14:32.670Z,10.20
2019-03-30T07:17:08.535Z,11.40
2019-03-30T07:19:42.368Z,11.90
2019-03-30T07:22:15.786Z,11.97
2019-03-30T07:24:47.536Z,13.60
2019-03-30T07:27:20.883Z,11.70
2019-03-30T07:29:52.148Z,12.73
2019-03-30T07:32:28.274Z,11.67
2019-03-30T07:35:01.356Z,11.63
2019-03-30T07:37:33.529Z,12.20
2019-03-30T07:40:05.104Z,12.40
2019-03-30T07:42:36.306Z,12.73
2019-03-30T07:45:08.759Z,11.60
2019-03-30T07:47:40.577Z,11.63
2019-03-30T07:50:13.643Z,12.60
2019-03-30T07:52:45.332Z,12.80
2019-03-30T07:55:17.020Z,11.93
2019-03-30T07:57:49.854Z,12.07
2019-03-30T08:00:21.477Z,11.33
2019-03-30T08:02:54.885Z,11.90
2019-03-30T08:05:27.913Z,11.83
2019-03-30T08:07:59.054Z,13.13
2019-03-30T08:10:30.729Z,11.53
2019-03-30T08:13:02.950Z,11.23
2019-03-30T08:15:36.311Z,11.17
2019-03-30T08:18:08.443Z,11.40
2019-03-30T08:20:41.135Z,11.43
2019-03-30T08:23:17.362Z,11.03
2019-03-30T08:25:53.226Z,10.30
2019-03-30T08:28:24.970Z,10.17
2019-03-30T08:30:56.884Z,9.07
2019-03-30T08:33:28.076Z,9.33
2019-03-30T08:35:59.764Z,9.47
2019-03-30T08:38:31.421Z,9.70
2019-03-30T08:41:02.556Z,10.13
2019-03-30T08:43:34.109Z,9.73
2019-03-30T08:46:08.609Z,8.67
2019-03-30T08:48:40.060Z,8.43
2019-03-30T08:51:11.604Z,8.63
2019-03-30T08:53:54.100Z,8.70
2019-03-30T08:56:24.191Z,8.67
2019-03-30T08:58:59.301Z,8.63
2019-03-30T09:01:31.763Z,9.00
2019-03-30T09:04:03.155Z,9.43
2019-03-30T09:06:34.899Z,8.87
2019-03-30T09:09:14.741Z,7.97
2019-03-30T09:11:46.120Z,8.20
2019-03-30T09:14:18.070Z,7.97
2019-03-30T09:16:50.010Z,8.33
2019-03-30T09:19:21.585Z,9.13
2019-03-30T09:21:52.765Z,9.63
2019-03-30T09:24:24.386Z,8.63
2019-03-30T09:26:58.125Z,9.17
2019-03-30T09:29:29.537Z,9.40
2019-03-30T09:32:13.849Z,9.30
2019-03-30T09:34:36.638Z,9.33
2019-03-30T09:37:09.211Z,9.23
2019-03-30T09:39:39.841Z,8.93
2019-03-30T09:42:11.607Z,9.73
2019-03-30T09:44:43.037Z,9.30
2019-03-30T09:47:15.496Z,8.47
2019-03-30T09:49:46.900Z,9.50
2019-03-30T09:52:19.551Z,9.70
2019-03-30T09:54:54.294Z,10.23
2019-03-30T09:57:26.886Z,9.80
2019-03-30T09:59:58.278Z,10.00
2019-03-30T10:02:30.789Z,11.30
2019-03-30T10:05:06.406Z,10.20
2019-03-30T10:07:38.854Z,10.57
2019-03-30T10:10:12.345Z,9.70
2019-03-30T10:12:44.309Z,10.03
2019-03-30T10:15:17.121Z,11.47
2019-03-30T10:17:50.872Z,11.87
2019-03-30T10:20:22.706Z,11.17
2019-03-30T10:22:55.777Z,11.23
2019-03-30T10:25:27.437Z,11.53
2019-03-30T10:27:59.536Z,11.33
2019-03-30T10:30:30.536Z,11.90
2019-03-30T10:33:04.784Z,11.33
2019-03-30T10:35:36.513Z,12.43
2019-03-30T10:38:10.117Z,13.10
2019-03-30T10:40:43.909Z,15.03
2019-03-30T10:43:18.380Z,13.73
2019-03-30T10:45:51.255Z,14.23
2019-03-30T10:48:25.010Z,14.10
2019-03-30T10:50:57.420Z,13.67
2019-03-30T10:53:28.540Z,14.57
2019-03-30T10:55:59.927Z,14.67
2019-03-30T10:58:32.188Z,13.63
2019-03-30T11:01:05.699Z,13.83
2019-03-30T11:03:40.010Z,12.87
2019-03-30T11:06:12.093Z,13.77
2019-03-30T11:08:44.704Z,13.70
2019-03-30T11:11:17.359Z,14.20
2019-03-30T11:13:50.219Z,13.13
2019-03-30T11:16:21.530Z,13.70
2019-03-30T11:18:53.435Z,13.70
2019-03-30T11:21:25.829Z,12.80
2019-03-30T11:23:58.465Z,13.73
2019-03-30T11:26:31.377Z,13.97
2019-03-30T11:29:06.880Z,13.13
2019-03-30T11:31:41.158Z,13.53
2019-03-30T11:34:13.922Z,13.90
2019-03-30T11:36:45.487Z,13.40
2019-03-30T11:39:19.418Z,13.60
2019-03-30T11:41:51.018Z,13.40
2019-03-30T11:44:22.356Z,13.77
2019-03-30T11:46:53.566Z,13.53
2019-03-30T11:49:28.087Z,12.60
2019-03-30T11:51:59.707Z,11.33
2019-03-30T11:54:35.833Z,11.50
2019-03-30T11:57:07.509Z,10.90
2019-03-30T11:59:41.012Z,10.80
2019-03-30T12:02:27.450Z,10.77
2019-03-30T12:04:55.262Z,10.70
2019-03-30T12:07:26.830Z,10.43
2019-03-30T12:10:03.085Z,10.60
2019-03-30T12:12:37.303Z,9.77
2019-03-30T12:15:15.783Z,10.10
2019-03-30T12:17:48.995Z,11.43
2019-03-30T12:20:22.196Z,9.90
2019-03-30T12:22:53.924Z,10.77
2019-03-30T12:25:35.507Z,11.50
2019-03-30T12:27:58.988Z,12.03
2019-03-30T12:30:30.936Z,11.00
2019-03-30T12:33:01.681Z,11.77
2019-03-30T12:35:36.174Z,10.37
2019-03-30T12:38:07.415Z,10.30
2019-03-30T12:40:38.805Z,10.80
2019-03-30T12:43:12.929Z,10.90
2019-03-30T12:45:44.449Z,10.53
2019-03-30T12:48:17.662Z,9.17
2019-03-30T12:50:49.404Z,9.37
2019-03-30T12:53:21.067Z,9.43
2019-03-30T12:55:52.275Z,10.77
2019-03-30T12:58:29.059Z,9.60
2019-03-30T13:01:10.521Z,9.23
2019-03-30T13:03:42.160Z,9.60
2019-03-30T13:06:16.005Z,10.10
2019-03-30T13:08:47.344Z,9.50
2019-03-30T13:11:40.424Z,9.93
2019-03-30T13:16:19.365Z,10.47
2019-03-30T13:17:52.155Z,9.70
2019-03-30T13:20:27.974Z,9.85
2019-03-30T13:23:04.386Z,9.40
2019-03-30T13:25:37.703Z,9.68
2019-03-30T13:28:17.119Z,9.33
2019-03-30T13:30:49.656Z,9.87
2019-03-30T13:33:20.739Z,10.03
2019-03-30T13:36:02.435Z,8.88
2019-03-30T13:38:34.191Z,10.58
2019-03-30T13:41:06.886Z,10.03
2019-03-30T13:43:41.156Z,10.10
2019-03-30T13:46:18.199Z,10.10
2019-03-30T13:48:51.060Z,10.23
2019-03-30T13:51:27.394Z,9.10
2019-03-30T13:54:01.505Z,9.47
2019-03-30T13:56:35.896Z,9.77
2019-03-30T13:59:09.691Z,9.98
2019-03-30T14:01:41.394Z,10.00
2019-03-30T14:04:13.789Z,9.90
2019-03-30T14:06:45.310Z,9.08
2019-03-30T14:09:16.781Z,8.68
2019-03-30T14:11:48.311Z,9.35
2019-03-30T14:14:20.303Z,9.40
2019-03-30T14:16:53.441Z,9.37
2019-03-30T14:19:25.403Z,8.80
2019-03-30T14:22:01.773Z,9.45
2019-03-30T14:25:16.444Z,8.88
2019-03-30T14:27:48.920Z,8.73
2019-03-30T14:30:22.748Z,9.30
2019-03-30T14:32:55.929Z,9.00
2019-03-30T14:35:27.503Z,8.45
2019-03-30T14:38:03.067Z,9.40
2019-03-30T14:40:34.904Z,9.40
2019-03-30T14:43:07.439Z,9.43
2019-03-30T14:45:44.950Z,9.00
2019-03-30T14:48:16.937Z,9.20
2019-03-30T14:50:48.767Z,9.35
2019-03-30T14:53:24.240Z,9.55
2019-03-30T14:55:57.116Z,9.88
2019-03-30T14:58:29.437Z,9.80
2019-03-30T15:01:03.248Z,10.58
2019-03-30T15:03:34.840Z,11.20
2019-03-30T15:06:08.017Z,10.32
2019-03-30T15:08:39.359Z,11.03
2019-03-30T15:11:12.549Z,11.05
2019-03-30T15:13:44.262Z,11.03
2019-03-30T15:16:20.708Z,10.30
2019-03-30T15:18:53.603Z,9.28
2019-03-30T15:21:26.775Z,10.48
2019-03-30T15:24:20.773Z,9.88
2019-03-30T15:27:00.000Z,9.05
2019-03-30T15:29:26.405Z,9.55
2019-03-30T15:31:57.627Z,9.38
2019-03-30T15:34:29.902Z,9.85
2019-03-30T15:37:01.257Z,9.95
2019-03-30T15:39:34.153Z,9.33
2019-03-30T15:42:06.009Z,8.83
2019-03-30T15:44:37.927Z,9.08
2019-03-30T15:47:09.529Z,8.48
2019-03-30T15:49:41.206Z,8.45
2019-03-30T15:52:14.527Z,8.08
2019-03-30T15:54:49.006Z,8.50
2019-03-30T15:57:20.912Z,8.58
2019-03-30T15:59:52.767Z,9.45
2019-03-30T16:02:24.081Z,9.33
2019-03-30T16:04:59.671Z,9.00
2019-03-30T16:07:31.599Z,8.60
2019-03-30T16:10:03.220Z,8.08
2019-03-30T16:12:34.598Z,8.85
2019-03-30T16:15:06.494Z,8.40
2019-03-30T16:17:39.622Z,7.90
2019-03-30T16:20:51.713Z,8.23
2019-03-30T16:23:30.422Z,8.50
2019-03-30T16:26:02.550Z,8.13
2019-03-30T16:28:38.604Z,8.78
2019-03-30T16:31:08.585Z,8.20
2019-03-30T16:33:40.726Z,8.10
2019-03-30T16:36:11.829Z,8.18
2019-03-30T16:38:42.958Z,8.13
2019-03-30T16:41:15.534Z,9.08
2019-03-30T16:43:46.525Z,8.73
2019-03-30T16:46:17.891Z,9.00
2019-03-30T16:48:51.929Z,8.28
2019-03-30T16:51:22.892Z,9.30
2019-03-30T16:53:53.879Z,8.60
2019-03-30T16:56:25.524Z,8.45
2019-03-30T16:58:57.784Z,7.80
2019-03-30T17:01:31.195Z,8.30
2019-03-30T17:04:02.856Z,8.65
2019-03-30T17:06:34.406Z,8.30
2019-03-30T17:09:07.158Z,8.38
2019-03-30T17:12:16.819Z,8.10
2019-03-30T17:17:49.034Z,9.05
2019-03-30T17:20:51.975Z,8.08
2019-03-30T17:23:24.212Z,7.80
2019-03-30T17:26:05.425Z,8.33
2019-03-30T17:28:41.105Z,9.00
2019-03-30T17:31:12.120Z,8.40
2019-03-30T17:33:50.324Z,7.57
2019-03-30T17:36:22.007Z,7.43
2019-03-30T17:38:55.602Z,7.73
2019-03-30T17:41:27.066Z,7.63
2019-03-30T17:43:58.596Z,7.77
2019-03-30T17:46:30.867Z,8.37
2019-03-30T17:49:04.981Z,7.77
2019-03-30T17:51:39.399Z,6.67
2019-03-30T17:54:11.941Z,7.20
2019-03-30T17:56:43.244Z,7.70
2019-03-30T17:59:14.706Z,7.40
2019-03-30T18:01:46.214Z,7.17
2019-03-30T18:04:17.811Z,7.10
2019-03-30T18:06:56.279Z,7.93
2019-03-30T18:09:30.399Z,7.37
2019-03-30T18:12:03.785Z,6.60
2019-03-30T18:14:38.172Z,6.80
2019-03-30T18:17:09.726Z,6.50
2019-03-30T18:19:41.229Z,7.07
2019-03-30T18:22:13.351Z,6.87
2019-03-30T18:24:46.327Z,6.80
2019-03-30T18:27:18.778Z,6.93
2019-03-30T18:29:50.575Z,7.83
2019-03-30T18:32:23.431Z,6.70
2019-03-30T18:34:54.546Z,10.40
2019-03-30T18:37:29.283Z,8.30
2019-03-30T18:40:01.488Z,7.77
2019-03-30T18:42:33.965Z,7.00
2019-03-30T18:45:06.566Z,7.70
2019-03-30T18:47:38.663Z,7.00
2019-03-30T18:50:09.948Z,7.20
2019-03-30T18:52:43.385Z,8.20
2019-03-30T18:55:18.936Z,7.40
2019-03-30T18:57:50.069Z,8.27
2019-03-30T19:00:28.886Z,8.80
2019-03-30T19:03:00.051Z,7.13
2019-03-30T19:05:33.336Z,7.27
2019-03-30T19:08:05.191Z,7.77
2019-03-30T19:10:36.459Z,8.13
2019-03-30T19:13:13.498Z,7.60
2019-03-30T19:15:47.003Z,7.63
2019-03-30T19:18:19.818Z,8.30
2019-03-30T19:20:52.073Z,7.53
2019-03-30T19:23:23.273Z,8.03
2019-03-30T19:25:54.518Z,8.17
2019-03-30T19:28:25.656Z,8.37
2019-03-30T19:30:56.915Z,9.00
2019-03-30T19:33:28.065Z,8.30
2019-03-30T19:35:59.411Z,7.40
2019-03-30T19:38:30.328Z,7.50
2019-03-30T19:41:01.469Z,7.83
2019-03-30T19:43:32.713Z,7.53
2019-03-30T19:46:05.187Z,7.67
2019-03-30T19:48:38.445Z,7.37
2019-03-30T19:51:10.152Z,6.83
2019-03-30T19:53:42.471Z,7.13
2019-03-30T19:56:14.156Z,7.33
2019-03-30T19:58:45.244Z,7.10
2019-03-30T20:01:17.280Z,6.63
2019-03-30T20:03:49.452Z,6.90
2019-03-30T20:06:20.698Z,6.90
2019-03-30T20:08:54.732Z,6.73
2019-03-30T20:11:26.720Z,6.93
2019-03-30T20:13:58.062Z,6.50
2019-03-30T20:16:29.687Z,7.00
2019-03-30T20:19:12.191Z,7.80
2019-03-30T20:21:33.518Z,8.10
2019-03-30T20:24:05.594Z,7.30
2019-03-30T20:26:36.642Z,7.07
2019-03-30T20:29:07.813Z,6.93
2019-03-30T20:31:39.226Z,7.40
2019-03-30T20:34:10.331Z,7.17
2019-03-30T20:36:45.058Z,7.57
2019-03-30T20:39:18.275Z,6.67
2019-03-30T20:41:49.450Z,7.53
2019-03-30T20:44:23.134Z,7.40
2019-03-30T20:46:59.790Z,7.20
2019-03-30T20:49:32.378Z,6.70
2019-03-30T20:52:03.505Z,7.10
2019-03-30T20:54:40.148Z,7.37
2019-03-30T20:57:11.478Z,7.40
2019-03-30T20:59:42.583Z,7.77
2019-03-30T21:02:15.306Z,7.17
2019-03-30T21:04:47.298Z,7.37
2019-03-30T21:07:17.566Z,7.87
2019-03-30T21:09:48.946Z,8.67
2019-03-30T21:12:23.460Z,10.23
2019-03-30T21:14:56.605Z,8.03
2019-03-30T21:17:31.431Z,7.10
2019-03-30T21:20:02.812Z,7.67
2019-03-30T21:22:36.899Z,7.40
2019-03-30T21:25:11.642Z,7.03
2019-03-30T21:27:43.611Z,6.80
2019-03-30T21:30:15.100Z,9.50
2019-03-30T21:32:46.524Z,7.43
2019-03-30T21:35:19.923Z,7.03
2019-03-30T21:37:54.583Z,6.70
2019-03-30T21:40:25.833Z,6.47
2019-03-30T21:42:57.275Z,6.73
2019-03-30T21:45:33.543Z,7.33
2019-03-30T21:48:05.784Z,9.37
2019-03-30T21:50:35.845Z,8.23
2019-03-30T21:53:07.053Z,7.27
2019-03-30T21:55:38.091Z,7.90
2019-03-30T21:58:10.144Z,7.33
2019-03-30T22:00:41.430Z,8.27
2019-03-30T22:03:12.782Z,8.70
2019-03-30T22:05:44.107Z,7.50
2019-03-30T22:08:17.159Z,7.83
2019-03-30T22:10:48.809Z,7.77
2019-03-30T22:13:21.898Z,7.87
2019-03-30T22:15:53.101Z,8.40
2019-03-30T22:18:24.411Z,8.00
2019-03-30T22:20:55.404Z,8.10
2019-03-30T22:23:26.889Z,8.57
2019-03-30T22:26:00.429Z,8.40
2019-03-30T22:28:31.931Z,8.27
2019-03-30T22:31:04.405Z,8.77
2019-03-30T22:33:36.015Z,8.33
2019-03-30T22:36:15.182Z,8.27
2019-03-30T22:38:46.295Z,8.87
2019-03-30T22:41:17.313Z,8.43
2019-03-30T22:43:48.548Z,8.57
2019-03-30T22:46:19.901Z,8.40
2019-03-30T22:48:51.363Z,8.50
2019-03-30T22:51:22.817Z,9.63
2019-03-30T22:53:54.346Z,9.77
2019-03-30T22:56:26.318Z,10.60
2019-03-30T22:58:57.748Z,10.13
2019-03-30T23:01:28.734Z,9.77
2019-03-30T23:04:00.456Z,9.33
2019-03-30T23:06:31.460Z,9.47
2019-03-30T23:09:03.139Z,9.93
2019-03-30T23:11:37.056Z,8.83
2019-03-30T23:14:11.763Z,9.07
2019-03-30T23:16:42.838Z,8.47
2019-03-30T23:19:14.693Z,9.20
2019-03-30T23:21:45.811Z,9.00
2019-03-30T23:24:17.070Z,8.93
2019-03-30T23:26:48.382Z,8.63
2019-03-30T23:29:20.779Z,8.80
2019-03-30T23:31:52.580Z,8.00
2019-03-30T23:34:23.980Z,7.83
2019-03-30T23:36:56.101Z,7.53
2019-03-30T23:39:27.364Z,8.50
2019-03-30T23:41:58.941Z,8.47
2019-03-30T23:44:30.196Z,7.93
2019-03-30T23:47:01.434Z,8.63
2019-03-30T23:49:32.914Z,8.23
2019-03-30T23:52:04.126Z,8.37
2019-03-30T23:54:35.656Z,8.33
2019-03-30T23:57:06.724Z,8.27
2019-03-30T23:59:37.681Z,8.30
